UAE131 OMDB-UUDD
Flight info
| Callsign | UAE131 |
|---|---|
| Flight time | N/A |
| Altitude | 37000 |
| Route | DAVMO DCT OTISO/N0493F380 L713 PAXER P718 SOMAD B143 KRS A240 KERUL/K0889F380 DCT AKT DCT ATNUR L864 GEKPA L736 OLOPI OLOPI3N |
| Aircraft | A388/J-SADE2E3FGHIJ3J4J5M1RWXY/LB1D1 |
Departure
| Time | 2026-04-30 12:14 |
|---|---|
| Airport | Dubai International Airport (OMDB) |
Arrival
| Time | N/A |
|---|---|
| Airport | Domodedovo International Airport (UUDD) |
| Time | Latitude | Longitude | Altitude | Speed | Heading |
|---|---|---|---|---|---|
| 2026-04-30 11:45 | 25.24309 | 55.37448 | 27 ft | 0 kts | 211° |
| 2026-04-30 12:02 | 25.24310 | 55.37448 | 26 ft | 1 kts | 211° |
| 2026-04-30 12:03 | 25.24314 | 55.37450 | 26 ft | 0 kts | 210° |
| 2026-04-30 12:03 | 25.24332 | 55.37461 | 32 ft | 2 kts | 206° |
| 2026-04-30 12:03 | 25.24343 | 55.37466 | 30 ft | 2 kts | 203° |
| 2026-04-30 12:04 | 25.24355 | 55.37471 | 32 ft | 2 kts | 200° |
| 2026-04-30 12:04 | 25.24368 | 55.37473 | 32 ft | 2 kts | 181° |
| 2026-04-30 12:04 | 25.24380 | 55.37469 | 32 ft | 2 kts | 159° |
| 2026-04-30 12:04 | 25.24391 | 55.37463 | 32 ft | 2 kts | 150° |
| 2026-04-30 12:05 | 25.24401 | 55.37455 | 32 ft | 2 kts | 144° |
| 2026-04-30 12:05 | 25.24410 | 55.37446 | 32 ft | 2 kts | 135° |
| 2026-04-30 12:05 | 25.24418 | 55.37435 | 32 ft | 2 kts | 126° |
| 2026-04-30 12:05 | 25.24421 | 55.37430 | 32 ft | 0 kts | 123° |
| 2026-04-30 12:07 | 25.24412 | 55.37445 | 32 ft | 4 kts | 122° |
| 2026-04-30 12:07 | 25.24388 | 55.37489 | 32 ft | 9 kts | 120° |
| 2026-04-30 12:08 | 25.24350 | 55.37566 | 29 ft | 14 kts | 118° |
| 2026-04-30 12:08 | 25.24334 | 55.37595 | 31 ft | 2 kts | 124° |
| 2026-04-30 12:08 | 25.24319 | 55.37620 | 31 ft | 6 kts | 124° |
| 2026-04-30 12:08 | 25.24288 | 55.37670 | 32 ft | 10 kts | 123° |
| 2026-04-30 12:09 | 25.24260 | 55.37754 | 26 ft | 11 kts | 82° |
| 2026-04-30 12:09 | 25.24312 | 55.37810 | 26 ft | 12 kts | 30° |
| 2026-04-30 12:09 | 25.24383 | 55.37860 | 27 ft | 12 kts | 34° |
| 2026-04-30 12:09 | 25.24455 | 55.37916 | 29 ft | 12 kts | 34° |
| 2026-04-30 12:10 | 25.24524 | 55.37967 | 29 ft | 14 kts | 33° |
| 2026-04-30 12:10 | 25.24608 | 55.38028 | 28 ft | 14 kts | 33° |
| 2026-04-30 12:10 | 25.24633 | 55.38046 | 28 ft | 0 kts | 33° |
| 2026-04-30 12:11 | 25.24640 | 55.38051 | 28 ft | 3 kts | 33° |
| 2026-04-30 12:11 | 25.24669 | 55.38072 | 29 ft | 6 kts | 33° |
| 2026-04-30 12:12 | 25.24704 | 55.38095 | 30 ft | 5 kts | 19° |
| 2026-04-30 12:12 | 25.24721 | 55.38096 | 31 ft | 4 kts | 354° |
| 2026-04-30 12:12 | 25.24766 | 55.38082 | 31 ft | 4 kts | 309° |
| 2026-04-30 12:12 | 25.24782 | 55.38059 | 30 ft | 7 kts | 308° |
| 2026-04-30 12:13 | 25.24795 | 55.38040 | 30 ft | 0 kts | 304° |
| 2026-04-30 12:13 | 25.24811 | 55.38014 | 30 ft | 25 kts | 304° |
| 2026-04-30 12:13 | 25.25036 | 55.37613 | 31 ft | 95 kts | 300° |
| 2026-04-30 12:13 | 25.25490 | 55.36794 | 29 ft | 149 kts | 301° |
| 2026-04-30 12:14 | 25.26087 | 55.35714 | 195 ft | 170 kts | 301° |
| 2026-04-30 12:14 | 25.26650 | 55.34619 | 787 ft | 164 kts | 298° |
| 2026-04-30 12:14 | 25.27131 | 55.33466 | 1333 ft | 165 kts | 293° |
| 2026-04-30 12:14 | 25.27631 | 55.32324 | 1904 ft | 167 kts | 298° |
| 2026-04-30 12:15 | 25.28266 | 55.31237 | 2353 ft | 175 kts | 306° |
| 2026-04-30 12:15 | 25.29018 | 55.30183 | 2863 ft | 172 kts | 315° |
| 2026-04-30 12:15 | 25.30059 | 55.29526 | 3266 ft | 177 kts | 341° |
| 2026-04-30 12:15 | 25.31319 | 55.29460 | 3570 ft | 188 kts | 358° |
| 2026-04-30 12:16 | 25.32667 | 55.29534 | 3708 ft | 198 kts | 357° |
| 2026-04-30 12:16 | 25.34083 | 55.29572 | 4029 ft | 208 kts | 356° |
| 2026-04-30 12:16 | 25.35533 | 55.29603 | 4635 ft | 212 kts | 356° |
| 2026-04-30 12:16 | 25.37091 | 55.29631 | 4916 ft | 234 kts | 356° |
| 2026-04-30 12:17 | 25.40411 | 55.29988 | 6083 ft | 248 kts | 13° |
| 2026-04-30 12:17 | 25.42034 | 55.30707 | 6668 ft | 255 kts | 20° |
| 2026-04-30 12:17 | 25.43718 | 55.31514 | 6977 ft | 274 kts | 19° |
| 2026-04-30 12:18 | 25.45542 | 55.32365 | 7026 ft | 290 kts | 19° |
| 2026-04-30 12:18 | 25.47393 | 55.33228 | 7063 ft | 293 kts | 19° |
| 2026-04-30 12:18 | 25.49288 | 55.34113 | 7409 ft | 296 kts | 19° |
| 2026-04-30 12:18 | 25.51198 | 55.35000 | 8080 ft | 298 kts | 19° |
| 2026-04-30 12:19 | 25.53135 | 55.35896 | 8659 ft | 304 kts | 19° |
| 2026-04-30 12:19 | 25.55097 | 55.36806 | 9304 ft | 307 kts | 19° |
| 2026-04-30 12:19 | 25.57083 | 55.37736 | 9900 ft | 313 kts | 21° |
| 2026-04-30 12:19 | 25.59000 | 55.38952 | 10329 ft | 327 kts | 32° |
| 2026-04-30 12:20 | 25.60901 | 55.40460 | 10496 ft | 345 kts | 33° |
| 2026-04-30 12:20 | 25.62881 | 55.42022 | 10660 ft | 362 kts | 32° |
| 2026-04-30 12:20 | 25.64971 | 55.43662 | 11028 ft | 371 kts | 32° |
| 2026-04-30 12:20 | 25.67056 | 55.45362 | 11590 ft | 375 kts | 38° |
| 2026-04-30 12:21 | 25.68977 | 55.47355 | 12135 ft | 379 kts | 42° |
| 2026-04-30 12:21 | 25.70895 | 55.49390 | 12703 ft | 383 kts | 41° |
| 2026-04-30 12:21 | 25.72840 | 55.51431 | 13260 ft | 387 kts | 41° |
| 2026-04-30 12:21 | 25.74818 | 55.53501 | 13787 ft | 391 kts | 41° |
| 2026-04-30 12:22 | 25.76782 | 55.55559 | 14289 ft | 394 kts | 41° |
| 2026-04-30 12:22 | 25.78787 | 55.57662 | 14807 ft | 397 kts | 41° |
| 2026-04-30 12:22 | 25.80803 | 55.59779 | 15352 ft | 400 kts | 41° |
| 2026-04-30 12:22 | 25.82829 | 55.61908 | 15845 ft | 403 kts | 41° |
| 2026-04-30 12:23 | 25.85006 | 55.63878 | 16340 ft | 401 kts | 27° |
| 2026-04-30 12:23 | 25.87526 | 55.65133 | 16879 ft | 396 kts | 11° |
| 2026-04-30 12:23 | 25.90184 | 55.65665 | 17360 ft | 393 kts | 1° |
| 2026-04-30 12:23 | 25.92905 | 55.66043 | 17852 ft | 396 kts | 2° |
| 2026-04-30 12:24 | 25.95647 | 55.66448 | 18314 ft | 398 kts | 2° |
| 2026-04-30 12:24 | 25.98406 | 55.66862 | 18738 ft | 400 kts | 2° |
| 2026-04-30 12:24 | 26.01173 | 55.67277 | 19166 ft | 403 kts | 2° |
| 2026-04-30 12:24 | 26.03959 | 55.67694 | 19572 ft | 405 kts | 2° |
| 2026-04-30 12:25 | 26.06762 | 55.68112 | 19989 ft | 407 kts | 2° |
| 2026-04-30 12:25 | 26.09576 | 55.68531 | 20401 ft | 409 kts | 2° |
| 2026-04-30 12:25 | 26.12416 | 55.68954 | 20804 ft | 412 kts | 2° |
| 2026-04-30 12:25 | 26.15275 | 55.69379 | 21181 ft | 415 kts | 2° |
| 2026-04-30 12:26 | 26.18120 | 55.69802 | 21568 ft | 418 kts | 2° |
| 2026-04-30 12:26 | 26.21016 | 55.70234 | 21957 ft | 420 kts | 2° |
| 2026-04-30 12:26 | 26.23933 | 55.70669 | 22339 ft | 423 kts | 2° |
| 2026-04-30 12:26 | 26.26870 | 55.71107 | 22736 ft | 426 kts | 2° |
| 2026-04-30 12:27 | 26.29785 | 55.71542 | 23100 ft | 428 kts | 2° |
| 2026-04-30 12:27 | 26.32751 | 55.71985 | 23454 ft | 431 kts | 2° |
| 2026-04-30 12:27 | 26.35740 | 55.72432 | 23755 ft | 434 kts | 2° |
| 2026-04-30 12:27 | 26.38745 | 55.72881 | 24045 ft | 437 kts | 1° |
| 2026-04-30 12:28 | 26.41749 | 55.73330 | 24294 ft | 441 kts | 1° |
| 2026-04-30 12:28 | 26.44802 | 55.73787 | 24599 ft | 444 kts | 1° |
| 2026-04-30 12:28 | 26.47879 | 55.74248 | 24894 ft | 446 kts | 1° |
| 2026-04-30 12:28 | 26.50975 | 55.74712 | 25183 ft | 449 kts | 1° |
| 2026-04-30 12:29 | 26.54085 | 55.75179 | 25467 ft | 452 kts | 1° |
| 2026-04-30 12:29 | 26.57207 | 55.75647 | 25759 ft | 455 kts | 1° |
| 2026-04-30 12:29 | 26.60362 | 55.76120 | 26042 ft | 458 kts | 1° |
| 2026-04-30 12:29 | 26.63489 | 55.76590 | 26326 ft | 461 kts | 1° |
| 2026-04-30 12:30 | 26.66685 | 55.77070 | 26619 ft | 464 kts | 1° |
| 2026-04-30 12:30 | 26.69895 | 55.77552 | 26905 ft | 467 kts | 1° |
| 2026-04-30 12:30 | 26.73126 | 55.78038 | 27205 ft | 470 kts | 1° |
| 2026-04-30 12:30 | 26.76379 | 55.78527 | 27505 ft | 473 kts | 1° |
| 2026-04-30 12:31 | 26.79666 | 55.79022 | 27819 ft | 476 kts | 1° |
| 2026-04-30 12:31 | 26.82919 | 55.79512 | 28126 ft | 479 kts | 0° |
| 2026-04-30 12:31 | 26.86241 | 55.80013 | 28444 ft | 482 kts | 0° |
| 2026-04-30 12:31 | 26.89581 | 55.80517 | 28773 ft | 486 kts | 0° |
| 2026-04-30 12:32 | 26.92947 | 55.81026 | 29112 ft | 489 kts | 0° |
| 2026-04-30 12:32 | 26.96336 | 55.81538 | 29419 ft | 493 kts | 0° |
| 2026-04-30 12:32 | 26.99755 | 55.82055 | 29768 ft | 496 kts | 0° |
| 2026-04-30 12:32 | 27.03194 | 55.82575 | 30083 ft | 499 kts | 0° |
| 2026-04-30 12:33 | 27.06600 | 55.83093 | 30413 ft | 502 kts | 0° |
| 2026-04-30 12:33 | 27.10087 | 55.83623 | 30744 ft | 505 kts | 0° |
| 2026-04-30 12:33 | 27.13583 | 55.84154 | 31077 ft | 507 kts | 0° |
| 2026-04-30 12:33 | 27.17087 | 55.84686 | 31423 ft | 511 kts | 0° |
| 2026-04-30 12:34 | 27.20636 | 55.85224 | 31679 ft | 516 kts | 0° |
| 2026-04-30 12:34 | 27.24169 | 55.85761 | 32038 ft | 518 kts | 0° |
| 2026-04-30 12:34 | 27.27758 | 55.86308 | 32372 ft | 521 kts | 1° |
| 2026-04-30 12:34 | 27.31370 | 55.86857 | 32613 ft | 525 kts | 1° |
| 2026-04-30 12:35 | 27.35008 | 55.87411 | 32964 ft | 528 kts | 1° |
| 2026-04-30 12:35 | 27.38659 | 55.87969 | 33345 ft | 529 kts | 1° |
| 2026-04-30 12:35 | 27.42276 | 55.88520 | 33715 ft | 532 kts | 1° |
| 2026-04-30 12:35 | 27.45975 | 55.89082 | 33851 ft | 539 kts | 1° |
| 2026-04-30 12:36 | 27.49703 | 55.89650 | 34170 ft | 540 kts | 1° |
| 2026-04-30 12:36 | 27.53436 | 55.90221 | 34543 ft | 541 kts | 1° |
| 2026-04-30 12:36 | 27.57124 | 55.90787 | 34940 ft | 540 kts | 1° |
| 2026-04-30 12:36 | 27.60848 | 55.91358 | 35381 ft | 539 kts | 1° |
| 2026-04-30 12:37 | 27.64557 | 55.91927 | 35856 ft | 537 kts | 1° |
| 2026-04-30 12:37 | 27.68256 | 55.92495 | 36367 ft | 535 kts | 1° |
| 2026-04-30 12:37 | 27.71950 | 55.93062 | 36802 ft | 534 kts | 1° |
| 2026-04-30 12:37 | 27.75636 | 55.93626 | 37128 ft | 536 kts | 1° |
| 2026-04-30 12:38 | 27.79341 | 55.94193 | 37441 ft | 536 kts | 1° |
| 2026-04-30 12:38 | 27.82991 | 55.94751 | 37806 ft | 535 kts | 1° |
| 2026-04-30 12:38 | 27.86678 | 55.95318 | 38251 ft | 534 kts | 1° |
| 2026-04-30 12:38 | 27.90359 | 55.95886 | 38666 ft | 532 kts | 1° |
| 2026-04-30 12:39 | 27.94032 | 55.96453 | 39015 ft | 532 kts | 1° |
| 2026-04-30 12:39 | 27.97712 | 55.97019 | 39101 ft | 535 kts | 1° |
| 2026-04-30 12:39 | 28.05052 | 55.98153 | 39099 ft | 529 kts | 0° |
| 2026-04-30 12:40 | 28.12373 | 55.99280 | 39113 ft | 531 kts | 0° |
| 2026-04-30 12:40 | 28.19618 | 56.00401 | 39107 ft | 529 kts | 0° |
| 2026-04-30 12:41 | 28.26948 | 56.01533 | 39118 ft | 532 kts | 0° |
| 2026-04-30 12:41 | 28.34288 | 56.02671 | 39106 ft | 532 kts | 0° |
| 2026-04-30 12:42 | 28.41623 | 56.03811 | 39120 ft | 531 kts | 0° |
| 2026-04-30 12:42 | 28.48952 | 56.04950 | 39138 ft | 532 kts | 0° |
| 2026-04-30 12:43 | 28.56269 | 56.06087 | 39165 ft | 533 kts | 0° |
| 2026-04-30 12:43 | 28.63641 | 56.07236 | 39161 ft | 534 kts | 0° |
| 2026-04-30 12:44 | 28.71020 | 56.08388 | 39213 ft | 534 kts | 0° |
| 2026-04-30 12:44 | 28.78361 | 56.09535 | 39199 ft | 535 kts | 0° |
| 2026-04-30 12:45 | 28.85748 | 56.10691 | 39226 ft | 536 kts | 0° |
| 2026-04-30 12:45 | 28.93112 | 56.11846 | 39241 ft | 536 kts | 0° |
| 2026-04-30 12:46 | 29.00514 | 56.13008 | 39239 ft | 537 kts | 360° |
| 2026-04-30 12:46 | 29.07928 | 56.14174 | 39245 ft | 537 kts | 360° |
| 2026-04-30 12:47 | 29.15348 | 56.15341 | 39248 ft | 537 kts | 360° |
| 2026-04-30 12:47 | 29.22769 | 56.16511 | 39256 ft | 538 kts | 360° |
| 2026-04-30 12:48 | 29.30144 | 56.17675 | 39278 ft | 538 kts | 360° |
| 2026-04-30 12:48 | 29.37575 | 56.18850 | 39296 ft | 538 kts | 360° |
| 2026-04-30 12:49 | 29.45015 | 56.20029 | 39293 ft | 538 kts | 360° |
| 2026-04-30 12:49 | 29.52386 | 56.21198 | 39312 ft | 538 kts | 359° |
| 2026-04-30 12:50 | 29.59800 | 56.22375 | 39316 ft | 538 kts | 359° |
| 2026-04-30 12:50 | 29.67226 | 56.23556 | 39316 ft | 537 kts | 359° |
| 2026-04-30 12:51 | 29.74596 | 56.24730 | 39325 ft | 537 kts | 359° |
| 2026-04-30 12:51 | 29.82015 | 56.25913 | 39317 ft | 536 kts | 359° |
| 2026-04-30 12:52 | 29.89422 | 56.27097 | 39298 ft | 536 kts | 359° |
| 2026-04-30 12:52 | 29.96810 | 56.28279 | 39297 ft | 536 kts | 359° |
| 2026-04-30 12:53 | 30.04176 | 56.29458 | 39257 ft | 537 kts | 359° |
| 2026-04-30 12:53 | 30.11600 | 56.30649 | 39238 ft | 538 kts | 359° |
| 2026-04-30 12:54 | 30.18976 | 56.31835 | 39220 ft | 538 kts | 359° |
| 2026-04-30 12:54 | 30.26419 | 56.33033 | 39225 ft | 540 kts | 359° |
| 2026-04-30 12:55 | 30.33874 | 56.34235 | 39215 ft | 541 kts | 359° |
| 2026-04-30 12:55 | 30.41337 | 56.35440 | 39208 ft | 542 kts | 359° |
| 2026-04-30 12:56 | 30.48764 | 56.36641 | 39224 ft | 543 kts | 359° |
| 2026-04-30 12:56 | 30.56270 | 56.37855 | 39202 ft | 545 kts | 359° |
| 2026-04-30 12:57 | 30.63790 | 56.39078 | 39197 ft | 544 kts | 359° |
| 2026-04-30 12:57 | 30.71240 | 56.40289 | 39201 ft | 543 kts | 359° |
| 2026-04-30 12:58 | 30.78744 | 56.41509 | 39187 ft | 544 kts | 359° |
| 2026-04-30 12:58 | 30.86250 | 56.42731 | 39205 ft | 545 kts | 359° |
| 2026-04-30 12:59 | 30.93767 | 56.43958 | 39210 ft | 545 kts | 359° |
| 2026-04-30 12:59 | 31.01306 | 56.45190 | 39201 ft | 547 kts | 359° |
| 2026-04-30 13:00 | 31.08859 | 56.46427 | 39209 ft | 548 kts | 359° |
| 2026-04-30 13:00 | 31.16384 | 56.47661 | 39210 ft | 550 kts | 359° |
| 2026-04-30 13:01 | 31.23969 | 56.48907 | 39204 ft | 552 kts | 359° |
| 2026-04-30 13:01 | 31.27805 | 56.49535 | 39365 ft | 556 kts | 359° |
| 2026-04-30 13:01 | 31.31595 | 56.50157 | 39751 ft | 556 kts | 359° |
| 2026-04-30 13:02 | 31.35447 | 56.50787 | 39932 ft | 555 kts | 359° |
| 2026-04-30 13:02 | 31.39234 | 56.51418 | 39957 ft | 544 kts | 359° |
| 2026-04-30 13:02 | 31.46718 | 56.52661 | 39949 ft | 544 kts | 359° |
| 2026-04-30 13:03 | 31.54226 | 56.53898 | 39922 ft | 547 kts | 359° |
| 2026-04-30 13:03 | 31.60511 | 56.54940 | 39920 ft | 548 kts | 359° |
| 2026-04-30 13:04 | 31.68077 | 56.56195 | 39894 ft | 548 kts | 359° |
| 2026-04-30 13:04 | 31.75657 | 56.57453 | 39878 ft | 549 kts | 359° |
| 2026-04-30 13:05 | 31.83224 | 56.58714 | 39900 ft | 548 kts | 359° |
| 2026-04-30 13:06 | 31.94539 | 56.60601 | 39882 ft | 548 kts | 359° |
| 2026-04-30 13:06 | 32.02088 | 56.61864 | 39845 ft | 547 kts | 359° |
| 2026-04-30 13:07 | 32.09574 | 56.63116 | 39820 ft | 546 kts | 359° |
| 2026-04-30 13:07 | 32.17106 | 56.64378 | 39816 ft | 546 kts | 359° |
| 2026-04-30 13:08 | 32.24626 | 56.65641 | 39809 ft | 546 kts | 359° |
| 2026-04-30 13:08 | 32.32156 | 56.66908 | 39805 ft | 545 kts | 359° |
| 2026-04-30 13:09 | 32.39675 | 56.68174 | 39809 ft | 545 kts | 359° |
| 2026-04-30 13:09 | 32.47174 | 56.69438 | 39807 ft | 546 kts | 359° |
| 2026-04-30 13:10 | 32.54713 | 56.70714 | 39803 ft | 546 kts | 359° |
| 2026-04-30 13:10 | 32.62208 | 56.71983 | 39814 ft | 546 kts | 359° |
| 2026-04-30 13:11 | 32.69756 | 56.73264 | 39804 ft | 547 kts | 359° |
| 2026-04-30 13:11 | 32.77269 | 56.74540 | 39798 ft | 548 kts | 359° |
| 2026-04-30 13:12 | 32.84828 | 56.75827 | 39793 ft | 548 kts | 359° |
| 2026-04-30 13:12 | 32.92388 | 56.77116 | 39791 ft | 549 kts | 359° |
| 2026-04-30 13:13 | 33.03695 | 56.79047 | 39779 ft | 549 kts | 359° |
| 2026-04-30 13:14 | 33.15051 | 56.80987 | 39791 ft | 548 kts | 358° |
| 2026-04-30 13:14 | 33.18807 | 56.81215 | 39781 ft | 533 kts | 347° |
| 2026-04-30 13:14 | 33.25881 | 56.79644 | 39778 ft | 504 kts | 329° |
| 2026-04-30 13:15 | 33.29020 | 56.78037 | 39774 ft | 490 kts | 321° |
| 2026-04-30 13:15 | 33.34500 | 56.73548 | 39809 ft | 472 kts | 311° |
| 2026-04-30 13:16 | 33.39693 | 56.68691 | 39785 ft | 474 kts | 311° |
| 2026-04-30 13:16 | 33.44900 | 56.63829 | 39784 ft | 474 kts | 311° |
| 2026-04-30 13:17 | 33.52692 | 56.56517 | 39823 ft | 474 kts | 311° |
| 2026-04-30 13:18 | 33.60444 | 56.49218 | 39809 ft | 473 kts | 311° |
| 2026-04-30 13:18 | 33.68203 | 56.41902 | 39797 ft | 471 kts | 311° |
| 2026-04-30 13:19 | 33.73337 | 56.37040 | 39796 ft | 471 kts | 311° |
| 2026-04-30 13:19 | 33.78498 | 56.32150 | 39795 ft | 471 kts | 311° |
| 2026-04-30 13:20 | 33.83624 | 56.27285 | 39788 ft | 472 kts | 311° |
| 2026-04-30 13:20 | 33.88777 | 56.22390 | 39784 ft | 472 kts | 311° |
| 2026-04-30 13:21 | 33.93938 | 56.17478 | 39788 ft | 472 kts | 311° |
| 2026-04-30 13:22 | 34.01638 | 56.10136 | 39787 ft | 472 kts | 311° |
| 2026-04-30 13:22 | 34.09382 | 56.02739 | 39786 ft | 473 kts | 311° |
| 2026-04-30 13:23 | 34.17109 | 55.95340 | 39785 ft | 473 kts | 311° |
| 2026-04-30 13:24 | 34.27391 | 55.85467 | 39791 ft | 472 kts | 311° |
| 2026-04-30 13:25 | 34.37681 | 55.75553 | 39782 ft | 472 kts | 311° |
| 2026-04-30 13:26 | 34.50488 | 55.63169 | 39781 ft | 471 kts | 311° |
| 2026-04-30 13:28 | 34.63293 | 55.50735 | 39788 ft | 472 kts | 311° |
| 2026-04-30 13:28 | 34.70960 | 55.43264 | 39792 ft | 473 kts | 311° |
| 2026-04-30 13:29 | 34.81232 | 55.33231 | 39795 ft | 473 kts | 311° |
| 2026-04-30 13:31 | 34.94803 | 55.21624 | 39811 ft | 494 kts | 326° |
| 2026-04-30 13:31 | 35.04815 | 55.17750 | 39800 ft | 512 kts | 337° |
| 2026-04-30 13:32 | 35.11752 | 55.15680 | 39807 ft | 511 kts | 336° |
| 2026-04-30 13:33 | 35.25555 | 55.11554 | 39816 ft | 511 kts | 337° |
| 2026-04-30 13:34 | 35.35906 | 55.08462 | 39828 ft | 511 kts | 337° |
| 2026-04-30 13:35 | 35.49699 | 55.04328 | 39844 ft | 511 kts | 337° |
| 2026-04-30 13:36 | 35.63531 | 55.00192 | 39865 ft | 511 kts | 338° |
| 2026-04-30 13:36 | 35.73930 | 54.97197 | 39870 ft | 511 kts | 338° |
| 2026-04-30 13:37 | 35.84291 | 54.94189 | 39882 ft | 511 kts | 338° |
| 2026-04-30 13:38 | 35.94668 | 54.91164 | 39898 ft | 510 kts | 338° |
| 2026-04-30 13:39 | 36.08442 | 54.87135 | 39927 ft | 510 kts | 338° |
| 2026-04-30 13:40 | 36.18817 | 54.84090 | 39947 ft | 511 kts | 338° |
| 2026-04-30 13:40 | 36.25743 | 54.82054 | 39969 ft | 511 kts | 338° |
| 2026-04-30 13:41 | 36.32626 | 54.80027 | 40002 ft | 511 kts | 338° |
| 2026-04-30 13:41 | 36.39563 | 54.77980 | 40035 ft | 511 kts | 339° |
| 2026-04-30 13:42 | 36.46493 | 54.75932 | 40067 ft | 511 kts | 338° |
| 2026-04-30 13:42 | 36.56845 | 54.72862 | 40099 ft | 512 kts | 339° |
| 2026-04-30 13:43 | 36.63779 | 54.70802 | 40136 ft | 512 kts | 339° |
| 2026-04-30 13:43 | 36.70730 | 54.68764 | 40195 ft | 514 kts | 341° |
| 2026-04-30 13:44 | 36.77814 | 54.67411 | 40203 ft | 518 kts | 344° |
| 2026-04-30 13:44 | 36.84938 | 54.66072 | 40206 ft | 517 kts | 344° |
| 2026-04-30 13:45 | 36.95569 | 54.64076 | 40215 ft | 516 kts | 344° |
| 2026-04-30 13:46 | 37.02676 | 54.62745 | 40204 ft | 515 kts | 344° |
| 2026-04-30 13:46 | 37.09776 | 54.61412 | 40202 ft | 515 kts | 345° |
| 2026-04-30 13:47 | 37.16826 | 54.60087 | 40197 ft | 515 kts | 345° |
| 2026-04-30 13:47 | 37.23924 | 54.58748 | 40185 ft | 514 kts | 345° |
| 2026-04-30 13:48 | 37.30998 | 54.57385 | 40186 ft | 514 kts | 345° |
| 2026-04-30 13:48 | 37.38038 | 54.56025 | 40185 ft | 514 kts | 345° |
| 2026-04-30 13:49 | 37.44947 | 54.54018 | 40184 ft | 505 kts | 335° |
| 2026-04-30 13:49 | 37.51435 | 54.50797 | 40182 ft | 497 kts | 328° |
| 2026-04-30 13:50 | 37.57749 | 54.47197 | 40179 ft | 498 kts | 329° |
| 2026-04-30 13:50 | 37.67201 | 54.41810 | 40180 ft | 499 kts | 328° |
| 2026-04-30 13:51 | 37.73530 | 54.38172 | 40181 ft | 499 kts | 328° |
| 2026-04-30 13:51 | 37.79857 | 54.34525 | 40180 ft | 499 kts | 328° |
| 2026-04-30 13:52 | 37.86147 | 54.30894 | 40178 ft | 499 kts | 328° |
| 2026-04-30 13:52 | 37.92457 | 54.27245 | 40172 ft | 499 kts | 328° |
| 2026-04-30 13:53 | 37.97714 | 54.24199 | 40163 ft | 499 kts | 329° |
| 2026-04-30 13:53 | 38.04043 | 54.20527 | 40165 ft | 499 kts | 329° |
| 2026-04-30 13:54 | 38.10331 | 54.16870 | 40179 ft | 499 kts | 329° |
| 2026-04-30 13:54 | 38.16665 | 54.13179 | 40154 ft | 500 kts | 329° |
| 2026-04-30 13:55 | 38.22963 | 54.09504 | 40152 ft | 499 kts | 329° |
| 2026-04-30 13:55 | 38.29299 | 54.05798 | 40146 ft | 500 kts | 329° |
| 2026-04-30 13:56 | 38.35619 | 54.02095 | 40142 ft | 500 kts | 329° |
| 2026-04-30 13:56 | 38.41917 | 53.98397 | 40153 ft | 500 kts | 329° |
| 2026-04-30 13:57 | 38.48257 | 53.94668 | 40151 ft | 500 kts | 329° |
| 2026-04-30 13:57 | 38.54562 | 53.90952 | 40148 ft | 501 kts | 329° |
| 2026-04-30 13:58 | 38.64071 | 53.85334 | 40145 ft | 501 kts | 329° |
| 2026-04-30 13:59 | 38.70406 | 53.81582 | 40146 ft | 501 kts | 329° |
| 2026-04-30 13:59 | 38.76698 | 53.77848 | 40138 ft | 502 kts | 329° |
| 2026-04-30 14:00 | 38.83045 | 53.74075 | 40144 ft | 502 kts | 329° |
| 2026-04-30 14:00 | 38.92514 | 53.68431 | 40143 ft | 502 kts | 329° |
| 2026-04-30 14:01 | 38.98854 | 53.64645 | 40141 ft | 501 kts | 329° |
| 2026-04-30 14:01 | 39.05194 | 53.60870 | 40140 ft | 501 kts | 329° |
| 2026-04-30 14:02 | 39.11499 | 53.57118 | 40137 ft | 501 kts | 329° |
| 2026-04-30 14:02 | 39.17835 | 53.53337 | 40136 ft | 501 kts | 329° |
| 2026-04-30 14:03 | 39.24172 | 53.49546 | 40138 ft | 502 kts | 329° |
| 2026-04-30 14:03 | 39.30518 | 53.45743 | 40137 ft | 501 kts | 329° |
| 2026-04-30 14:04 | 39.36833 | 53.41950 | 40136 ft | 502 kts | 329° |
| 2026-04-30 14:04 | 39.43172 | 53.38136 | 40140 ft | 502 kts | 329° |
| 2026-04-30 14:05 | 39.49465 | 53.34341 | 40141 ft | 502 kts | 329° |
| 2026-04-30 14:05 | 39.55812 | 53.30507 | 40141 ft | 502 kts | 329° |
| 2026-04-30 14:06 | 39.65331 | 53.24741 | 40136 ft | 502 kts | 329° |
| 2026-04-30 14:07 | 39.74804 | 53.18985 | 40143 ft | 502 kts | 329° |
| 2026-04-30 14:08 | 39.84313 | 53.13190 | 40143 ft | 502 kts | 329° |
| 2026-04-30 14:08 | 39.93767 | 53.07411 | 40152 ft | 502 kts | 329° |
| 2026-04-30 14:09 | 40.00101 | 53.03529 | 40165 ft | 502 kts | 329° |
| 2026-04-30 14:10 | 40.09875 | 52.98439 | 40142 ft | 506 kts | 335° |
| 2026-04-30 14:10 | 40.16470 | 52.95374 | 40152 ft | 506 kts | 335° |
| 2026-04-30 14:11 | 40.23118 | 52.92277 | 40147 ft | 507 kts | 335° |
| 2026-04-30 14:11 | 40.29759 | 52.89189 | 40137 ft | 506 kts | 335° |
| 2026-04-30 14:12 | 40.36396 | 52.86098 | 40139 ft | 505 kts | 335° |
| 2026-04-30 14:12 | 40.42991 | 52.83019 | 40128 ft | 504 kts | 335° |
| 2026-04-30 14:13 | 40.49593 | 52.79930 | 40143 ft | 503 kts | 335° |
| 2026-04-30 14:13 | 40.56160 | 52.76852 | 40127 ft | 503 kts | 335° |
| 2026-04-30 14:14 | 40.62753 | 52.73754 | 40108 ft | 502 kts | 335° |
| 2026-04-30 14:14 | 40.69347 | 52.70650 | 40122 ft | 502 kts | 335° |
| 2026-04-30 14:15 | 40.75932 | 52.67543 | 40117 ft | 502 kts | 335° |
| 2026-04-30 14:15 | 40.82516 | 52.64430 | 40118 ft | 503 kts | 335° |
| 2026-04-30 14:16 | 40.89068 | 52.61326 | 40122 ft | 503 kts | 335° |
| 2026-04-30 14:16 | 40.95665 | 52.58161 | 40136 ft | 503 kts | 334° |
| 2026-04-30 14:17 | 41.02255 | 52.54950 | 40127 ft | 504 kts | 335° |
| 2026-04-30 14:17 | 41.08799 | 52.51763 | 40126 ft | 504 kts | 335° |
| 2026-04-30 14:18 | 41.15401 | 52.48544 | 40125 ft | 503 kts | 335° |
| 2026-04-30 14:18 | 41.25227 | 52.43743 | 40124 ft | 503 kts | 335° |
| 2026-04-30 14:19 | 41.35099 | 52.38903 | 40121 ft | 502 kts | 335° |
| 2026-04-30 14:20 | 41.41621 | 52.35697 | 40114 ft | 502 kts | 335° |
| 2026-04-30 14:20 | 41.51419 | 52.30867 | 40107 ft | 501 kts | 335° |
| 2026-04-30 14:21 | 41.57963 | 52.27633 | 40112 ft | 501 kts | 335° |
| 2026-04-30 14:22 | 41.67773 | 52.22772 | 40109 ft | 500 kts | 335° |
| 2026-04-30 14:22 | 41.77529 | 52.17921 | 40102 ft | 500 kts | 335° |
| 2026-04-30 14:23 | 41.90532 | 52.11387 | 40105 ft | 499 kts | 334° |
| 2026-04-30 14:24 | 42.00234 | 52.06351 | 40106 ft | 499 kts | 334° |
| 2026-04-30 14:25 | 42.13222 | 51.99616 | 40115 ft | 499 kts | 334° |
| 2026-04-30 14:26 | 42.22912 | 51.94575 | 40089 ft | 499 kts | 334° |
| 2026-04-30 14:27 | 42.32614 | 51.89510 | 40107 ft | 499 kts | 334° |
| 2026-04-30 14:27 | 42.39092 | 51.86119 | 40103 ft | 499 kts | 334° |
| 2026-04-30 14:28 | 42.48809 | 51.81018 | 40101 ft | 498 kts | 334° |
| 2026-04-30 14:28 | 42.55270 | 51.77618 | 40096 ft | 498 kts | 334° |
| 2026-04-30 14:29 | 42.67068 | 51.71387 | 40113 ft | 497 kts | 334° |
| 2026-04-30 14:31 | 42.84225 | 51.62283 | 40119 ft | 495 kts | 334° |
| 2026-04-30 14:31 | 42.93849 | 51.57152 | 40105 ft | 494 kts | 334° |
| 2026-04-30 14:32 | 43.03417 | 51.52032 | 40094 ft | 493 kts | 334° |
| 2026-04-30 14:33 | 43.09817 | 51.48598 | 40090 ft | 493 kts | 333° |
| 2026-04-30 14:33 | 43.19355 | 51.43468 | 40105 ft | 493 kts | 333° |
| 2026-04-30 14:34 | 43.25718 | 51.40034 | 40102 ft | 493 kts | 333° |
| 2026-04-30 14:34 | 43.32117 | 51.36574 | 40107 ft | 493 kts | 333° |
| 2026-04-30 14:35 | 43.41681 | 51.31388 | 40121 ft | 494 kts | 333° |
| 2026-04-30 14:36 | 43.48072 | 51.27913 | 40113 ft | 493 kts | 333° |
| 2026-04-30 14:36 | 43.54462 | 51.24430 | 40102 ft | 493 kts | 333° |
| 2026-04-30 14:37 | 43.60846 | 51.20943 | 40105 ft | 494 kts | 333° |
| 2026-04-30 14:37 | 43.67234 | 51.17445 | 40105 ft | 493 kts | 333° |
| 2026-04-30 14:38 | 43.73620 | 51.13940 | 40103 ft | 493 kts | 333° |
| 2026-04-30 14:38 | 43.79966 | 51.10450 | 40103 ft | 494 kts | 333° |
| 2026-04-30 14:39 | 43.86237 | 51.06606 | 40104 ft | 489 kts | 326° |
| 2026-04-30 14:39 | 43.91996 | 51.01671 | 40099 ft | 483 kts | 319° |
| 2026-04-30 14:40 | 44.00198 | 50.93558 | 40099 ft | 484 kts | 319° |
| 2026-04-30 14:40 | 44.05696 | 50.88116 | 40107 ft | 484 kts | 319° |
| 2026-04-30 14:41 | 44.11149 | 50.82680 | 40129 ft | 484 kts | 319° |
| 2026-04-30 14:41 | 44.16632 | 50.77197 | 40113 ft | 485 kts | 319° |
| 2026-04-30 14:42 | 44.22083 | 50.71733 | 40112 ft | 485 kts | 319° |
| 2026-04-30 14:42 | 44.26644 | 50.67151 | 40115 ft | 485 kts | 319° |
| 2026-04-30 14:43 | 44.32124 | 50.61636 | 40117 ft | 485 kts | 319° |
| 2026-04-30 14:43 | 44.37573 | 50.56137 | 40111 ft | 485 kts | 319° |
| 2026-04-30 14:44 | 44.43053 | 50.50595 | 40113 ft | 485 kts | 319° |
| 2026-04-30 14:44 | 44.48505 | 50.45068 | 40134 ft | 485 kts | 319° |
| 2026-04-30 14:45 | 44.53980 | 50.39506 | 40131 ft | 485 kts | 319° |
| 2026-04-30 14:45 | 44.59435 | 50.33949 | 40110 ft | 484 kts | 319° |
| 2026-04-30 14:46 | 44.64894 | 50.28376 | 40112 ft | 484 kts | 319° |
| 2026-04-30 14:46 | 44.70318 | 50.22828 | 40109 ft | 485 kts | 319° |
| 2026-04-30 14:47 | 44.76328 | 50.18275 | 40107 ft | 496 kts | 334° |
| 2026-04-30 14:47 | 44.83059 | 50.15878 | 40106 ft | 508 kts | 348° |
| 2026-04-30 14:48 | 44.90169 | 50.15206 | 40108 ft | 511 kts | 351° |
| 2026-04-30 14:48 | 44.97231 | 50.14573 | 40111 ft | 511 kts | 351° |
| 2026-04-30 14:49 | 45.04347 | 50.13948 | 40127 ft | 512 kts | 352° |
| 2026-04-30 14:49 | 45.11476 | 50.13330 | 40113 ft | 512 kts | 352° |
| 2026-04-30 14:50 | 45.22103 | 50.12408 | 40113 ft | 512 kts | 352° |
| 2026-04-30 14:51 | 45.32786 | 50.11477 | 40113 ft | 513 kts | 352° |
| 2026-04-30 14:52 | 45.43481 | 50.10542 | 40106 ft | 513 kts | 352° |
| 2026-04-30 14:52 | 45.54140 | 50.09606 | 40113 ft | 513 kts | 352° |
| 2026-04-30 14:53 | 45.64816 | 50.08666 | 40104 ft | 513 kts | 352° |
| 2026-04-30 14:54 | 45.79092 | 50.07402 | 40104 ft | 513 kts | 352° |
| 2026-04-30 14:55 | 45.89762 | 50.06452 | 40103 ft | 513 kts | 352° |
| 2026-04-30 14:56 | 46.04067 | 50.05160 | 40092 ft | 514 kts | 352° |
| 2026-04-30 14:57 | 46.14735 | 50.04194 | 40104 ft | 514 kts | 352° |
| 2026-04-30 14:58 | 46.29054 | 50.02891 | 40098 ft | 515 kts | 352° |
| 2026-04-30 14:58 | 46.39746 | 50.01915 | 40092 ft | 515 kts | 352° |
| 2026-04-30 15:00 | 46.57650 | 50.00270 | 40086 ft | 515 kts | 352° |
| 2026-04-30 15:01 | 46.71971 | 49.98948 | 40085 ft | 515 kts | 352° |
| 2026-04-30 15:01 | 46.82693 | 49.97955 | 40082 ft | 516 kts | 352° |
| 2026-04-30 15:02 | 46.89876 | 49.97288 | 40079 ft | 516 kts | 352° |
| 2026-04-30 15:03 | 47.07805 | 49.95614 | 40078 ft | 516 kts | 352° |
| 2026-04-30 15:04 | 47.25723 | 49.93930 | 40079 ft | 516 kts | 352° |
| 2026-04-30 15:06 | 47.43598 | 49.92238 | 40070 ft | 517 kts | 352° |
| 2026-04-30 15:07 | 47.57958 | 49.90870 | 40080 ft | 518 kts | 352° |
| 2026-04-30 15:08 | 47.72352 | 49.89493 | 40076 ft | 518 kts | 352° |
| 2026-04-30 15:09 | 47.75953 | 49.89146 | 40077 ft | 518 kts | 352° |